Time;durP1;ratioP1;P1;durP2;ratioP2;P2;SDS_P1;SDS_P2;PMS_P1;PMS_P2;Temp;Humidity;BMP_temperature;BMP_pressure;BME280_temperature;BME280_humidity;BME280_pressure;Samples;Min_cycle;Max_cycle;Signal;HPM_P1;HPM_P2
2023/10/29 00:02:20;;;;;;;4.33;2.17;;;;;;;11.06;100.00;96792.94;5033070;28;20250;-80
2023/10/29 00:04:47;;;;;;;4.83;2.60;;;;;;;11.07;100.00;96796.44;5033225;28;20209;-80
2023/10/29 00:07:14;;;;;;;2.57;2.10;;;;;;;11.08;100.00;96795.44;5033371;28;20219;-80
2023/10/29 00:09:41;;;;;;;2.90;2.40;;;;;;;11.05;100.00;96798.38;5032942;28;20221;-80
2023/10/29 00:12:08;;;;;;;3.43;2.20;;;;;;;11.04;100.00;96797.56;5032667;28;20227;-80
2023/10/29 00:14:34;;;;;;;3.67;2.30;;;;;;;10.98;100.00;96805.19;5032244;28;20205;-80
2023/10/29 00:17:01;;;;;;;3.20;2.10;;;;;;;10.94;100.00;96795.91;5033270;28;20205;-80
2023/10/29 00:19:28;;;;;;;2.40;1.83;;;;;;;10.94;100.00;96806.47;5033256;28;20216;-80
2023/10/29 00:21:54;;;;;;;3.93;1.97;;;;;;;10.96;100.00;96804.50;5032938;28;20239;-81
2023/10/29 00:24:22;;;;;;;5.07;1.80;;;;;;;11.00;100.00;96803.25;5032427;28;20213;-80
2023/10/29 00:26:50;;;;;;;2.43;1.80;;;;;;;11.01;100.00;96800.47;5032764;28;20266;-81
2023/10/29 00:29:16;;;;;;;2.40;1.90;;;;;;;11.06;100.00;96802.72;5032579;28;20542;-80
2023/10/29 00:31:43;;;;;;;2.47;1.90;;;;;;;11.07;100.00;96805.19;5033067;28;20234;-80
2023/10/29 00:34:09;;;;;;;2.20;1.90;;;;;;;11.10;100.00;96793.50;5032455;28;20238;-81
2023/10/29 00:36:36;;;;;;;4.40;2.10;;;;;;;11.08;100.00;96798.91;5032545;28;20215;-80
2023/10/29 00:39:03;;;;;;;5.07;2.03;;;;;;;11.08;100.00;96798.09;5032993;28;20214;-81
2023/10/29 00:41:31;;;;;;;3.57;2.37;;;;;;;11.06;100.00;96792.94;5032716;28;20224;-80
2023/10/29 00:43:57;;;;;;;4.77;2.73;;;;;;;11.02;100.00;96790.72;5032514;28;20263;-80
2023/10/29 00:46:25;;;;;;;3.67;2.50;;;;;;;10.94;100.00;96791.44;5033321;28;20241;-80
2023/10/29 00:48:52;;;;;;;3.03;2.30;;;;;;;10.90;100.00;96807.72;5034148;28;20303;-81
2023/10/29 00:51:19;;;;;;;2.87;2.20;;;;;;;10.88;100.00;96805.19;5034944;28;20247;-81
2023/10/29 00:53:46;;;;;;;3.13;2.20;;;;;;;10.87;100.00;96805.34;5033187;28;20204;-81
2023/10/29 00:56:15;;;;;;;3.40;2.43;;;;;;;10.89;100.00;96800.75;5033401;28;20213;-81
2023/10/29 00:58:43;;;;;;;5.43;2.40;;;;;;;10.90;100.00;96797.16;5032537;28;20208;-81
2023/10/29 01:01:10;;;;;;;3.03;2.27;;;;;;;10.90;100.00;96797.97;5032488;28;20235;-81
2023/10/29 01:03:36;;;;;;;2.90;2.20;;;;;;;10.92;100.00;96789.91;5031449;28;20232;-81
2023/10/29 01:06:03;;;;;;;3.27;2.10;;;;;;;10.96;100.00;96786.00;5032872;28;20211;-81
2023/10/29 01:08:30;;;;;;;2.70;2.23;;;;;;;10.98;100.00;96784.03;5032954;28;20211;-81
2023/10/29 01:10:56;;;;;;;5.67;2.87;;;;;;;11.01;100.00;96779.31;5032676;28;20250;-80
2023/10/29 01:13:23;;;;;;;2.77;1.97;;;;;;;11.01;100.00;96768.75;5032508;28;20200;-81
2023/10/29 01:15:51;;;;;;;3.60;2.23;;;;;;;11.01;100.00;96763.44;5032776;28;20239;-80
2023/10/29 01:18:17;;;;;;;2.70;1.97;;;;;;;11.00;100.00;96776.84;5032588;28;20205;-80
2023/10/29 01:20:44;;;;;;;4.80;2.37;;;;;;;11.01;100.00;96778.50;5032627;28;20213;-81
2023/10/29 01:23:11;;;;;;;2.53;2.00;;;;;;;11.00;100.00;96788.22;5030002;28;20683;-81
2023/10/29 01:25:38;;;;;;;3.87;2.30;;;;;;;11.02;100.00;96780.97;5032597;28;20327;-80
2023/10/29 01:28:05;;;;;;;2.73;1.87;;;;;;;11.02;100.00;96770.41;5032980;28;20575;-80
2023/10/29 01:30:32;;;;;;;2.30;1.83;;;;;;;10.98;100.00;96762.91;5032110;28;20323;-81
2023/10/29 01:33:00;;;;;;;3.03;2.20;;;;;;;10.92;100.00;96759.03;5031826;28;20685;-80
2023/10/29 01:35:26;;;;;;;3.13;2.13;;;;;;;10.85;100.00;96755.28;5032214;28;20216;-80
2023/10/29 01:37:53;;;;;;;3.23;2.07;;;;;;;10.78;100.00;96755.97;5031987;28;20211;-80
2023/10/29 01:40:20;;;;;;;3.67;2.27;;;;;;;10.77;100.00;96743.75;5032012;28;20264;-81
2023/10/29 01:42:48;;;;;;;3.20;2.10;;;;;;;10.75;100.00;96740.38;5031848;28;20246;-80
2023/10/29 01:45:16;;;;;;;2.03;1.83;;;;;;;10.71;100.00;96739.03;5032194;28;20209;-80
2023/10/29 01:47:43;;;;;;;3.13;2.03;;;;;;;10.68;100.00;96739.28;5032070;28;20216;-80
2023/10/29 01:50:11;;;;;;;2.87;1.90;;;;;;;10.65;100.00;96727.19;5034816;28;20291;-80
2023/10/29 01:52:38;;;;;;;2.37;1.90;;;;;;;10.64;100.00;96714.97;5034850;28;20231;-81
2023/10/29 01:55:05;;;;;;;2.70;1.90;;;;;;;10.61;100.00;96711.75;5039283;28;20211;-81
2023/10/29 01:57:33;;;;;;;2.57;1.97;;;;;;;10.54;100.00;96708.88;5042304;28;20207;-80
2023/10/29 02:00:00;;;;;;;2.90;1.53;;;;;;;10.49;100.00;96703.16;5040014;28;20210;-81
2023/10/29 02:02:26;;;;;;;2.00;1.60;;;;;;;10.50;100.00;96703.97;5035703;28;20229;-81
2023/10/29 02:04:53;;;;;;;1.97;1.50;;;;;;;10.49;100.00;96707.59;5036190;28;20211;-80
2023/10/29 02:07:20;;;;;;;4.30;1.70;;;;;;;10.48;100.00;96701.50;5036512;28;20212;-81
2023/10/29 02:09:47;;;;;;;1.63;1.40;;;;;;;10.50;100.00;96703.97;5036005;28;20494;-80
2023/10/29 02:12:14;;;;;;;3.47;1.40;;;;;;;10.48;100.00;96698.00;5035991;28;20236;-81
2023/10/29 02:14:41;;;;;;;2.03;1.60;;;;;;;10.50;100.00;96703.97;5035285;28;20214;-81
2023/10/29 02:17:07;;;;;;;3.00;1.87;;;;;;;10.46;100.00;96698.16;5035771;28;20211;-80
2023/10/29 02:19:34;;;;;;;4.60;2.10;;;;;;;10.44;100.00;96683.41;5035396;28;20211;-80
2023/10/29 02:22:01;;;;;;;3.37;1.53;;;;;;;10.42;100.00;96688.00;5035097;28;20230;-80
2023/10/29 02:24:28;;;;;;;3.83;1.60;;;;;;;10.44;100.00;96671.06;5035056;28;20206;-80
2023/10/29 02:26:54;;;;;;;2.10;1.67;;;;;;;10.47;100.00;96677.88;5035063;28;20209;-80
2023/10/29 02:29:21;;;;;;;2.43;1.77;;;;;;;10.43;100.00;96674.66;5035002;28;20220;-81
2023/10/29 02:31:47;;;;;;;4.03;1.80;;;;;;;10.43;100.00;96687.03;5035056;28;20227;-81
2023/10/29 02:34:14;;;;;;;2.13;1.63;;;;;;;10.47;100.00;96678.69;5034086;28;20211;-81
2023/10/29 02:36:40;;;;;;;1.80;1.40;;;;;;;10.51;100.00;96681.91;5034976;28;20216;-81
2023/10/29 02:39:08;;;;;;;1.70;1.47;;;;;;;10.55;100.00;96675.34;5035024;28;20214;-81
2023/10/29 02:41:35;;;;;;;2.80;1.50;;;;;;;10.59;100.00;96666.16;5034846;28;20257;-80
2023/10/29 02:44:01;;;;;;;1.70;1.40;;;;;;;10.65;100.00;96665.59;5034323;28;20270;-81
2023/10/29 02:46:28;;;;;;;3.07;1.20;;;;;;;10.72;100.00;96666.69;5034958;28;20234;-80
2023/10/29 02:48:54;;;;;;;2.13;1.53;;;;;;;10.85;100.00;96667.22;5034356;28;20246;-80
2023/10/29 02:51:21;;;;;;;2.83;1.50;;;;;;;10.93;100.00;96665.53;5034852;28;20593;-80
2023/10/29 02:53:47;;;;;;;2.10;1.13;;;;;;;10.96;100.00;96659.94;5034189;28;20207;-80
2023/10/29 02:56:15;;;;;;;1.40;1.30;;;;;;;11.01;100.00;96667.47;5034600;28;20208;-80
2023/10/29 02:58:41;;;;;;;1.53;1.30;;;;;;;11.03;100.00;96662.84;5034464;28;20218;-80
2023/10/29 03:01:09;;;;;;;3.03;1.40;;;;;;;11.03;100.00;96660.22;5033834;28;20236;-80
2023/10/29 03:03:37;;;;;;;2.03;1.40;;;;;;;11.06;100.00;96654.66;5033867;28;20235;-81
2023/10/29 03:06:05;;;;;;;1.60;1.10;;;;;;;11.05;100.00;96647.69;5034259;28;20206;-80
2023/10/29 03:08:31;;;;;;;1.90;1.40;;;;;;;11.07;100.00;96640.44;5034274;28;20212;-80
2023/10/29 03:10:58;;;;;;;2.13;1.27;;;;;;;11.07;100.00;96640.44;5034051;28;20228;-81
2023/10/29 03:13:26;;;;;;;2.70;1.47;;;;;;;11.06;100.00;96646.72;5033847;28;20584;-81
2023/10/29 03:15:52;;;;;;;1.63;1.50;;;;;;;11.03;100.00;96654.94;5033768;28;20570;-80
2023/10/29 03:18:19;;;;;;;2.47;1.20;;;;;;;10.95;100.00;96653.00;5034052;28;20219;-81
2023/10/29 03:20:45;;;;;;;1.30;1.20;;;;;;;10.92;100.00;96653.31;5034376;28;20212;-80
2023/10/29 03:23:12;;;;;;;1.90;1.20;;;;;;;10.88;100.00;96641.34;5035142;28;20226;-81
2023/10/29 03:25:38;;;;;;;1.53;1.13;;;;;;;10.81;100.00;96650.81;5034101;28;20221;-81
2023/10/29 03:28:05;;;;;;;1.27;1.10;;;;;;;10.75;100.00;96646.09;5033680;28;20700;-81
2023/10/29 03:30:33;;;;;;;1.60;1.30;;;;;;;10.74;100.00;96648.88;5033716;28;20217;-81
2023/10/29 03:32:59;;;;;;;2.33;1.20;;;;;;;10.80;100.00;96648.31;5031719;28;20208;-81
2023/10/29 03:35:26;;;;;;;6.50;1.60;;;;;;;10.83;100.00;96648.84;5033883;28;20217;-81
2023/10/29 03:37:53;;;;;;;1.37;1.23;;;;;;;10.85;100.00;96646.06;5033738;28;20209;-81
2023/10/29 03:40:19;;;;;;;1.70;1.20;;;;;;;10.89;100.00;96643.00;5033590;28;20215;-81
2023/10/29 03:42:46;;;;;;;3.40;1.40;;;;;;;10.99;100.00;96637.69;5032646;28;20233;-81
2023/10/29 03:45:13;;;;;;;2.80;1.03;;;;;;;11.02;100.00;96642.69;5033476;28;20243;-81
2023/10/29 03:47:41;;;;;;;1.53;1.00;;;;;;;11.06;100.00;96644.09;5033257;28;20683;-81
2023/10/29 03:50:08;;;;;;;2.13;1.00;;;;;;;11.05;100.00;96640.59;5033233;28;20212;-81
2023/10/29 03:52:35;;;;;;;2.57;1.73;;;;;;;11.07;100.00;96641.25;5032856;28;20231;-81
2023/10/29 03:55:01;;;;;;;1.63;1.20;;;;;;;11.07;100.00;96653.66;5033152;28;20219;-80
2023/10/29 03:57:28;;;;;;;1.27;1.07;;;;;;;11.09;100.00;96643.78;5033087;28;20223;-81
2023/10/29 03:59:54;;;;;;;1.40;1.30;;;;;;;11.08;99.93;96652.69;5033263;28;20642;-81
2023/10/29 04:02:21;;;;;;;2.97;1.40;;;;;;;11.08;100.00;96648.22;5033295;28;20239;-80
2023/10/29 04:04:49;;;;;;;1.30;1.20;;;;;;;11.07;100.00;96653.66;5038777;28;20241;-80
2023/10/29 04:07:15;;;;;;;1.53;1.20;;;;;;;11.05;100.00;96668.81;5037996;28;20239;-80
2023/10/29 04:09:41;;;;;;;2.10;1.20;;;;;;;10.96;100.00;96664.41;5036770;28;20295;-81
2023/10/29 04:12:08;;;;;;;2.20;1.43;;;;;;;10.90;100.00;96660.50;5032962;28;20238;-81
2023/10/29 04:14:35;;;;;;;2.60;1.30;;;;;;;10.84;100.00;96670.84;5032723;28;20217;-81
2023/10/29 04:17:01;;;;;;;1.33;1.10;;;;;;;10.88;100.00;96657.19;5033488;28;20670;-81
2023/10/29 04:19:28;;;;;;;2.40;1.23;;;;;;;10.82;100.00;96651.66;5033121;28;20220;-81
2023/10/29 04:21:55;;;;;;;2.07;1.20;;;;;;;10.82;100.00;96652.47;5032869;28;20236;-81
2023/10/29 04:24:22;;;;;;;1.30;1.20;;;;;;;10.80;100.00;96658.88;5032879;28;20232;-81
2023/10/29 04:26:48;;;;;;;1.63;1.07;;;;;;;10.83;100.00;96655.97;5032921;28;20228;-81
2023/10/29 04:29:16;;;;;;;1.30;1.00;;;;;;;10.86;100.00;96642.47;5032880;28;20215;-81
2023/10/29 04:31:42;;;;;;;1.20;0.90;;;;;;;10.91;96.78;96633.13;5032604;28;20233;-81
2023/10/29 04:34:09;;;;;;;2.33;1.43;;;;;;;10.88;96.73;96619.38;5032419;28;20216;-81
2023/10/29 04:36:35;;;;;;;1.33;1.17;;;;;;;10.83;97.41;96621.63;5032741;28;20209;-80
2023/10/29 04:39:03;;;;;;;1.33;0.97;;;;;;;10.85;97.74;96625.78;5032733;28;20208;-81
2023/10/29 04:41:30;;;;;;;2.20;1.17;;;;;;;10.92;98.03;96629.50;5032332;28;20313;-81
2023/10/29 04:43:56;;;;;;;1.57;1.10;;;;;;;10.96;99.11;96640.63;5032219;28;20239;-81
2023/10/29 04:46:23;;;;;;;1.47;1.13;;;;;;;11.00;99.46;96639.38;5032835;28;20204;-81
2023/10/29 04:48:49;;;;;;;1.60;1.10;;;;;;;11.05;99.59;96637.94;5032708;28;20216;-81
2023/10/29 04:51:16;;;;;;;2.90;1.07;;;;;;;11.10;99.74;96638.34;5032832;28;20710;-81
2023/10/29 04:53:42;;;;;;;1.00;0.93;;;;;;;11.15;99.46;96632.63;5031565;28;20218;-80
2023/10/29 04:56:10;;;;;;;1.33;1.23;;;;;;;11.16;99.50;96631.63;5032627;28;20208;-81
2023/10/29 04:58:37;;;;;;;1.90;1.00;;;;;;;11.17;99.08;96625.38;5032573;28;20591;-80
2023/10/29 05:01:04;;;;;;;2.03;1.13;;;;;;;11.15;97.80;96619.41;5032320;28;20251;-81
2023/10/29 05:03:30;;;;;;;2.03;1.17;;;;;;;11.15;97.26;96619.41;5031780;28;20229;-81
2023/10/29 05:05:56;;;;;;;1.10;0.90;;;;;;;11.16;96.91;96618.41;5032045;28;20215;-81
2023/10/29 05:08:23;;;;;;;1.90;1.07;;;;;;;11.17;95.59;96620.06;5032401;28;20322;-81
2023/10/29 05:10:49;;;;;;;1.23;1.13;;;;;;;11.18;95.46;96613.84;5032033;28;20209;-81
2023/10/29 05:13:17;;;;;;;1.53;1.10;;;;;;;11.18;96.05;96606.72;5031578;28;20212;-81
2023/10/29 05:15:44;;;;;;;1.40;0.80;;;;;;;11.20;96.05;96598.66;5032139;28;20227;-80
2023/10/29 05:18:10;;;;;;;1.20;1.00;;;;;;;11.22;95.99;96602.81;5031924;28;20215;-81
2023/10/29 05:20:38;;;;;;;1.60;0.97;;;;;;;11.26;95.64;96595.41;5031723;28;20209;-81
2023/10/29 05:23:04;;;;;;;1.90;0.90;;;;;;;11.31;94.99;96591.34;5032998;28;20210;-81
2023/10/29 05:25:31;;;;;;;1.33;0.90;;;;;;;11.32;94.44;96602.75;5036204;28;20238;-81
2023/10/29 05:27:58;;;;;;;2.00;1.17;;;;;;;11.35;94.40;96597.16;5036017;28;20220;-81
2023/10/29 05:30:25;;;;;;;1.47;0.73;;;;;;;11.32;94.18;96605.41;5035843;28;20299;-81
2023/10/29 05:32:52;;;;;;;1.43;0.90;;;;;;;11.32;94.45;96606.22;5035306;28;20727;-81
2023/10/29 05:35:19;;;;;;;1.10;0.90;;;;;;;11.35;94.26;96597.16;5035797;28;20235;-81
2023/10/29 05:37:45;;;;;;;1.23;0.90;;;;;;;11.37;93.48;96595.22;5035731;28;20205;-81
2023/10/29 05:40:12;;;;;;;2.00;1.30;;;;;;;11.37;93.97;96596.03;5035548;28;20212;-81
2023/10/29 05:42:39;;;;;;;2.00;0.93;;;;;;;11.35;94.63;96598.00;5035129;28;20238;-80
2023/10/29 05:45:06;;;;;;;2.70;1.00;;;;;;;11.38;95.17;96610.09;5035726;28;20235;-81
2023/10/29 05:47:34;;;;;;;2.00;1.30;;;;;;;11.34;94.70;96616.66;5035176;28;20209;-80
2023/10/29 05:50:01;;;;;;;0.97;0.87;;;;;;;11.34;94.43;96609.56;5035106;28;20232;-81
2023/10/29 05:52:27;;;;;;;1.43;1.13;;;;;;;11.33;94.74;96615.00;5034660;28;20236;-81
2023/10/29 05:54:54;;;;;;;1.10;0.90;;;;;;;11.33;95.86;96620.28;5035666;28;20211;-81
2023/10/29 05:57:20;;;;;;;2.10;1.30;;;;;;;11.35;94.71;96602.44;5035392;28;20213;-81
2023/10/29 05:59:46;;;;;;;1.87;1.07;;;;;;;11.43;91.10;96597.28;5035314;28;20216;-81
2023/10/29 06:02:13;;;;;;;1.60;1.10;;;;;;;11.46;91.65;96604.91;5035180;28;20240;-81
2023/10/29 06:04:41;;;;;;;1.87;1.30;;;;;;;11.42;92.70;96603.53;5034435;28;20238;-81
2023/10/29 06:07:09;;;;;;;1.30;1.10;;;;;;;11.43;92.98;96605.22;5035864;28;20594;-81
2023/10/29 06:09:35;;;;;;;1.10;0.83;;;;;;;11.47;93.12;96606.56;5036424;28;20212;-80
2023/10/29 06:12:02;;;;;;;1.20;0.80;;;;;;;11.42;94.80;96604.34;5040886;28;20228;-81
2023/10/29 06:14:28;;;;;;;2.57;1.00;;;;;;;11.40;96.78;96624.00;5042238;28;20219;-83
2023/10/29 06:16:57;;;;;;;0.80;0.80;;;;;;;11.41;97.50;96626.50;5039351;28;20216;-82
2023/10/29 06:19:23;;;;;;;1.37;1.17;;;;;;;11.44;97.10;96635.97;5036583;28;20212;-79
2023/10/29 06:21:52;;;;;;;1.23;1.00;;;;;;;11.41;97.91;96646.81;5034938;28;20761;-78
2023/10/29 06:24:18;;;;;;;2.80;0.90;;;;;;;11.38;97.25;96655.06;5033804;28;20224;-78
2023/10/29 06:26:45;;;;;;;1.13;1.00;;;;;;;11.37;96.44;96658.69;5034554;28;20212;-78
2023/10/29 06:29:11;;;;;;;1.53;1.10;;;;;;;11.32;96.97;96661.75;5035284;28;20221;-79
2023/10/29 06:31:38;;;;;;;1.03;0.83;;;;;;;11.31;96.95;96659.28;5034835;28;20335;-81
2023/10/29 06:34:04;;;;;;;2.90;1.20;;;;;;;11.32;97.53;96671.53;5056531;28;20581;-81
2023/10/29 06:36:31;;;;;;;1.90;1.03;;;;;;;11.35;98.61;96669.41;5074834;28;20207;-81
2023/10/29 06:38:59;;;;;;;1.27;0.90;;;;;;;11.38;99.11;96666.47;5074748;28;20210;-81
2023/10/29 06:41:26;;;;;;;1.07;1.00;;;;;;;11.42;98.78;96682.88;5074907;28;20600;-80
2023/10/29 06:43:52;;;;;;;1.33;1.00;;;;;;;11.44;99.10;96680.94;5073997;28;20238;-81
2023/10/29 06:46:19;;;;;;;2.10;1.07;;;;;;;11.42;100.00;96688.16;5074452;28;20203;-80
2023/10/29 06:48:45;;;;;;;1.33;1.00;;;;;;;11.42;100.00;96699.59;5074832;28;20208;-81
2023/10/29 06:51:13;;;;;;;1.83;1.10;;;;;;;11.40;100.00;96700.72;5074413;28;20605;-81
2023/10/29 06:53:40;;;;;;;1.60;1.27;;;;;;;11.41;100.00;96705.88;5072628;28;20721;-82
2023/10/29 06:56:09;;;;;;;0.80;0.80;;;;;;;11.42;100.00;96709.31;5075304;28;20221;-82
2023/10/29 06:58:37;;;;;;;2.20;1.25;;;;;;;11.45;100.00;96719.63;5073697;28;20502;-81
2023/10/29 07:01:04;;;;;;;1.77;1.00;;;;;;;11.47;100.00;96725.59;5071752;28;20239;-80
2023/10/29 07:03:32;;;;;;;1.27;0.90;;;;;;;11.52;100.00;96733.94;5072488;28;20226;-81
2023/10/29 07:06:05;;;;;;;0.80;0.80;;;;;;;11.55;99.58;96731.84;5073850;28;20212;-83
2023/10/29 07:08:32;;;;;;;1.50;1.00;;;;;;;11.62;98.76;96738.25;5074535;28;20260;-80
2023/10/29 07:10:58;;;;;;;2.20;1.00;;;;;;;11.66;97.54;96731.69;5073712;28;20237;-81
2023/10/29 07:13:26;;;;;;;2.57;0.90;;;;;;;11.69;97.78;96728.72;5073034;28;20215;-81
2023/10/29 07:15:53;;;;;;;1.00;0.80;;;;;;;11.67;97.26;96735.19;5074086;28;20223;-81
2023/10/29 07:18:20;;;;;;;1.03;0.90;;;;;;;11.69;97.54;96735.84;5073591;28;20206;-81
2023/10/29 07:20:46;;;;;;;0.83;0.83;;;;;;;11.70;97.57;96740.16;5073277;28;20211;-81
2023/10/29 07:23:13;;;;;;;1.60;0.87;;;;;;;11.74;97.65;96746.84;5073026;28;20207;-81
2023/10/29 07:25:39;;;;;;;1.00;0.90;;;;;;;11.77;96.97;96730.66;5073467;28;20233;-80
2023/10/29 07:28:07;;;;;;;0.90;0.90;;;;;;;11.82;96.97;96742.47;5073771;28;20218;-81
2023/10/29 07:30:35;;;;;;;1.97;0.90;;;;;;;11.88;97.30;96749.84;5073364;28;20214;-81
2023/10/29 07:33:01;;;;;;;1.10;0.90;;;;;;;11.95;97.55;96750.06;5072956;28;20218;-81
2023/10/29 07:35:28;;;;;;;1.20;1.10;;;;;;;12.01;96.85;96754.75;5073765;28;20231;-81
2023/10/29 07:37:54;;;;;;;1.20;0.80;;;;;;;12.06;96.39;96752.50;5073345;28;20206;-81
2023/10/29 07:40:21;;;;;;;2.80;0.90;;;;;;;12.08;96.42;96745.25;5073223;28;20219;-81
2023/10/29 07:42:47;;;;;;;0.97;0.70;;;;;;;12.10;95.91;96754.72;5072592;28;20237;-80
2023/10/29 07:45:14;;;;;;;1.27;0.80;;;;;;;12.16;92.35;96748.00;5072918;28;20230;-81
2023/10/29 07:47:42;;;;;;;1.63;0.80;;;;;;;12.27;88.20;96739.81;5072343;28;20229;-81
2023/10/29 07:50:10;;;;;;;1.67;1.00;;;;;;;12.37;87.09;96744.09;5072034;28;20677;-81
2023/10/29 07:52:39;;;;;;;2.17;0.77;;;;;;;12.41;88.29;96750.72;5072199;28;20383;-82
2023/10/29 07:55:06;;;;;;;1.20;0.90;;;;;;;12.49;88.88;96755.28;5077490;28;20203;-83
2023/10/29 07:57:33;;;;;;;1.40;0.80;;;;;;;12.51;89.80;96763.91;5073923;28;20490;-81
2023/10/29 08:00:00;;;;;;;3.97;1.00;;;;;;;12.56;89.66;96766.94;5065606;28;20204;-81
2023/10/29 08:02:26;;;;;;;1.40;1.10;;;;;;;12.66;89.81;96767.72;5055218;28;20231;-81
2023/10/29 08:04:55;;;;;;;3.23;1.60;;;;;;;12.83;86.82;96759.75;5072438;28;20227;-81
2023/10/29 08:07:21;;;;;;;2.03;1.50;;;;;;;12.86;86.72;96753.31;5061947;28;20689;-81
2023/10/29 08:09:48;;;;;;;2.43;1.50;;;;;;;12.94;87.78;96771.94;5072722;28;20213;-81
2023/10/29 08:12:14;;;;;;;1.50;1.30;;;;;;;13.06;87.45;96768.06;5072159;28;20230;-81
2023/10/29 08:14:41;;;;;;;1.90;1.07;;;;;;;13.18;87.29;96774.81;5053353;28;20212;-81
2023/10/29 08:17:07;;;;;;;2.57;1.33;;;;;;;13.27;86.18;96777.34;5065321;28;20199;-81
2023/10/29 08:19:34;;;;;;;1.10;1.00;;;;;;;13.41;85.76;96775.97;5063843;28;20209;-81
2023/10/29 08:22:02;;;;;;;2.13;1.30;;;;;;;13.47;84.73;96770.88;5034648;28;20628;-81
2023/10/29 08:24:29;;;;;;;1.10;0.80;;;;;;;13.56;85.39;96764.63;5048328;28;20239;-80
2023/10/29 08:26:55;;;;;;;1.83;1.20;;;;;;;13.62;86.12;96768.47;5053132;28;20211;-80
2023/10/29 08:29:22;;;;;;;2.17;1.40;;;;;;;13.62;82.87;96764.00;5041731;28;20222;-80
2023/10/29 08:31:48;;;;;;;1.00;0.90;;;;;;;13.67;83.21;96766.16;5032327;28;20519;-81
2023/10/29 08:34:15;;;;;;;2.87;0.90;;;;;;;13.66;84.31;96783.09;5031640;28;20208;-81
2023/10/29 08:36:41;;;;;;;1.17;0.97;;;;;;;13.67;85.64;96795.38;5039715;28;20617;-81
2023/10/29 08:39:10;;;;;;;1.10;0.80;;;;;;;13.70;86.27;96803.03;5051553;28;20243;-81
2023/10/29 08:41:36;;;;;;;1.17;1.00;;;;;;;13.70;86.76;96811.00;5051738;28;20260;-81
2023/10/29 08:44:03;;;;;;;1.73;1.20;;;;;;;13.71;87.21;96812.66;5051696;28;20269;-80
2023/10/29 08:46:30;;;;;;;1.47;0.90;;;;;;;13.72;87.66;96824.94;5047230;28;20627;-80
2023/10/29 08:48:56;;;;;;;1.77;1.00;;;;;;;13.74;87.88;96831.75;5044145;28;20216;-80
2023/10/29 08:51:23;;;;;;;1.40;0.97;;;;;;;13.75;88.50;96816.69;5051639;28;20230;-80
2023/10/29 08:53:49;;;;;;;0.77;0.77;;;;;;;13.76;89.58;96821.00;5051576;28;20228;-80
2023/10/29 08:56:17;;;;;;;2.03;1.00;;;;;;;13.76;90.31;96813.84;5051652;28;20619;-80
2023/10/29 08:58:44;;;;;;;2.30;1.17;;;;;;;13.81;90.86;96821.34;5058749;28;20219;-81
2023/10/29 09:01:12;;;;;;;1.67;1.20;;;;;;;13.85;92.94;96812.06;5062585;28;20227;-82
2023/10/29 09:03:38;;;;;;;1.97;1.27;;;;;;;13.88;96.13;96809.09;5063050;28;20209;-81
2023/10/29 09:06:06;;;;;;;1.53;1.20;;;;;;;13.89;97.67;96818.72;5058168;28;20229;-81
2023/10/29 09:08:33;;;;;;;0.90;0.90;;;;;;;13.92;99.14;96807.78;5063120;28;20212;-81
2023/10/29 09:11:00;;;;;;;1.37;1.27;;;;;;;13.95;100.00;96802.16;5057525;28;20783;-81
2023/10/29 09:13:28;;;;;;;1.50;1.20;;;;;;;13.97;100.00;96800.19;5057059;28;20553;-81
2023/10/29 09:15:55;;;;;;;1.30;1.20;;;;;;;14.02;100.00;96781.94;5069233;28;20217;-80
2023/10/29 09:18:21;;;;;;;1.20;1.10;;;;;;;14.11;100.00;96789.78;5068885;28;20277;-80
2023/10/29 09:20:48;;;;;;;2.70;1.43;;;;;;;14.19;100.00;96797.00;5056504;28;20208;-81
2023/10/29 09:23:15;;;;;;;2.03;1.33;;;;;;;14.19;100.00;96799.66;5058329;28;20289;-84
2023/10/29 09:25:43;;;;;;;2.47;1.30;;;;;;;14.18;100.00;96790.00;5056276;28;20243;-80
2023/10/29 09:28:11;;;;;;;1.90;1.37;;;;;;;14.17;100.00;96791.00;5055324;28;20735;-80
2023/10/29 09:30:39;;;;;;;2.30;1.50;;;;;;;14.12;100.00;96793.28;5056830;28;20269;-81
2023/10/29 09:33:07;;;;;;;2.00;1.20;;;;;;;14.03;100.00;96783.59;5056958;28;20581;-81
2023/10/29 09:35:35;;;;;;;1.27;1.10;;;;;;;14.02;100.00;96768.66;5055934;28;20252;-80
2023/10/29 09:38:01;;;;;;;1.80;1.30;;;;;;;14.01;100.00;96753.72;5057166;28;20231;-80
2023/10/29 09:40:28;;;;;;;2.43;1.20;;;;;;;13.99;100.00;96745.91;5056982;28;20222;-80
2023/10/29 09:42:56;;;;;;;1.90;1.23;;;;;;;13.99;100.00;96761.03;5055366;28;20713;-80
2023/10/29 09:45:24;;;;;;;2.93;1.10;;;;;;;13.94;100.00;96763.31;5056409;28;20707;-80
2023/10/29 09:47:53;;;;;;;3.27;1.20;;;;;;;13.88;100.00;96775.41;5056392;28;20216;-80
2023/10/29 09:50:21;;;;;;;1.67;1.33;;;;;;;13.84;100.00;96767.91;5054921;28;20320;-80
2023/10/29 09:52:50;;;;;;;1.67;1.13;;;;;;;13.74;100.00;96772.53;5055455;28;20283;-81
2023/10/29 09:55:18;;;;;;;1.17;1.07;;;;;;;13.66;100.00;96767.16;5056080;28;20206;-81
2023/10/29 09:57:45;;;;;;;1.10;1.00;;;;;;;13.63;100.00;96773.59;5056827;28;20577;-81
2023/10/29 10:00:13;;;;;;;2.50;1.40;;;;;;;13.62;100.00;96776.44;5055784;28;20435;-81
2023/10/29 10:02:52;;;;;;;1.90;1.60;;;;;;;13.63;100.00;96770.13;5055898;28;20269;-80
2023/10/29 10:05:20;;;;;;;1.77;1.50;;;;;;;13.64;100.00;96767.31;5055986;28;20229;-81
2023/10/29 10:07:46;;;;;;;2.87;1.50;;;;;;;13.68;100.00;96759.88;5056334;28;20208;-81
2023/10/29 10:10:13;;;;;;;1.95;1.65;;;;;;;13.77;100.00;96758.91;5054472;28;20776;-81
2023/10/29 10:12:46;;;;;;;1.70;1.40;;;;;;;13.71;100.00;96756.91;5042467;28;20241;-81
2023/10/29 10:15:13;;;;;;;1.93;1.43;;;;;;;13.72;100.00;96750.59;5050686;28;20453;-81
2023/10/29 10:17:40;;;;;;;1.53;1.33;;;;;;;13.72;100.00;96758.56;5054193;28;20661;-81
2023/10/29 10:20:11;;;;;;;1.93;1.50;;;;;;;13.74;100.00;96752.09;5055849;28;20304;-81
2023/10/29 10:22:37;;;;;;;1.90;1.30;;;;;;;13.83;100.00;96735.22;5059199;28;20232;-81
2023/10/29 10:25:05;;;;;;;2.93;1.60;;;;;;;13.87;100.00;96728.59;5059616;28;20236;-81
2023/10/29 10:27:31;;;;;;;2.40;1.27;;;;;;;13.85;100.00;96721.78;5057780;28;20677;-81
2023/10/29 10:29:58;;;;;;;1.50;1.40;;;;;;;13.84;100.00;96717.47;5048779;28;20213;-81
2023/10/29 10:32:24;;;;;;;2.30;1.50;;;;;;;13.84;100.00;96725.44;5063465;28;20229;-80
2023/10/29 10:34:52;;;;;;;3.07;1.40;;;;;;;13.82;100.00;96730.06;5075951;28;20205;-80
2023/10/29 10:37:24;;;;;;;2.40;1.40;;;;;;;13.81;100.00;96726.56;5061329;28;20301;-80
2023/10/29 10:39:52;;;;;;;1.57;1.40;;;;;;;13.84;100.00;96728.06;5053860;28;20210;-81
2023/10/29 10:42:25;;;;;;;1.33;1.23;;;;;;;13.88;100.00;96732.09;5056225;28;20247;-80
2023/10/29 10:44:54;;;;;;;1.77;1.40;;;;;;;13.89;100.00;96729.28;5055265;28;20281;-80
2023/10/29 10:47:21;;;;;;;2.20;1.63;;;;;;;13.92;100.00;96730.75;5060268;28;20317;-80
2023/10/29 10:49:49;;;;;;;2.33;1.60;;;;;;;13.99;100.00;96718.53;5075613;28;20209;-80
2023/10/29 10:52:17;;;;;;;1.40;1.30;;;;;;;14.03;100.00;96722.50;5073623;28;20260;-80
2023/10/29 10:54:46;;;;;;;3.80;1.40;;;;;;;14.09;100.00;96713.88;5075137;28;20303;-80
2023/10/29 10:57:14;;;;;;;1.80;1.40;;;;;;;14.13;100.00;96710.75;5053926;28;20217;-80
2023/10/29 10:59:41;;;;;;;3.27;1.60;;;;;;;14.14;100.00;96716.91;5054876;28;20209;-80
2023/10/29 11:02:08;;;;;;;1.60;1.27;;;;;;;14.22;100.00;96717.78;5054645;28;20234;-81
2023/10/29 11:04:35;;;;;;;2.37;1.50;;;;;;;14.30;100.00;96722.28;5054473;28;20206;-81
2023/10/29 11:07:02;;;;;;;1.40;1.30;;;;;;;14.36;100.00;96711.00;5053849;28;20209;-82
2023/10/29 11:09:28;;;;;;;1.83;1.30;;;;;;;14.41;100.00;96703.34;5051607;28;20213;-82
2023/10/29 11:11:57;;;;;;;1.73;1.27;;;;;;;14.46;100.00;96698.38;5052966;28;20240;-82
2023/10/29 11:14:24;;;;;;;1.70;1.47;;;;;;;14.50;100.00;96705.03;5052813;28;20213;-82
2023/10/29 11:16:53;;;;;;;1.77;1.67;;;;;;;14.55;100.00;96689.44;5053291;28;20291;-82
2023/10/29 11:19:45;;;;;;;2.07;1.23;;;;;;;14.53;100.00;96680.78;5055475;28;20235;-81
2023/10/29 11:22:20;;;;;;;1.73;1.33;;;;;;;14.63;100.00;96665.50;5053346;28;20287;-81
2023/10/29 11:25:20;;;;;;;1.83;1.47;;;;;;;14.70;98.16;96662.03;5054179;28;20255;-81
2023/10/29 11:27:49;;;;;;;1.73;1.40;;;;;;;14.74;97.49;96651.88;5054504;28;20197;-81
2023/10/29 11:30:17;;;;;;;2.33;1.57;;;;;;;14.79;95.74;96649.56;5054330;28;20213;-82